Time;durP1;ratioP1;P1;durP2;ratioP2;P2;SDS_P1;SDS_P2;PMS_P1;PMS_P2;Temp;Humidity;BMP_temperature;BMP_pressure;BME280_temperature;BME280_humidity;BME280_pressure;Samples;Min_cycle;Max_cycle;Signal;HPM_P1;HPM_P2
2022/01/22 00:02:07;;;;;;;8.67;3.10;;;;;;;0.63;79.26;100854.47;1640447;87;21158;-78
2022/01/22 00:04:36;;;;;;;5.72;2.37;;;;;;;0.60;79.43;100857.02;1640887;87;20998;-78
2022/01/22 00:07:04;;;;;;;6.17;2.83;;;;;;;0.56;79.58;100855.27;1640432;87;21027;-78
2022/01/22 00:09:38;;;;;;;10.37;2.80;;;;;;;0.50;79.58;100859.08;1640677;87;21041;-79
2022/01/22 00:12:00;;;;;;;10.93;2.93;;;;;;;0.41;79.81;100858.95;1640649;85;21555;-78
2022/01/22 00:14:28;;;;;;;8.80;2.83;;;;;;;0.35;80.03;100849.86;1640793;87;21303;-78
2022/01/22 00:16:58;;;;;;;5.87;2.27;;;;;;;0.31;80.32;100855.84;1640535;87;21018;-77
2022/01/22 00:19:26;;;;;;;6.67;2.70;;;;;;;0.30;80.45;100851.52;1640736;87;21014;-76
2022/01/22 00:21:54;;;;;;;11.70;3.20;;;;;;;0.27;80.56;100854.92;1640457;87;21303;-76
2022/01/22 00:24:21;;;;;;;8.17;2.80;;;;;;;0.27;80.91;100862.66;1640656;87;21068;-79
2022/01/22 00:26:48;;;;;;;7.00;2.67;;;;;;;0.27;81.03;100859.22;1640769;87;21124;-78
2022/01/22 00:29:16;;;;;;;6.37;2.63;;;;;;;0.28;81.29;100867.37;1640523;87;21014;-80
2022/01/22 00:31:44;;;;;;;7.07;2.80;;;;;;;0.28;81.32;100855.78;1640853;87;21093;-79
2022/01/22 00:34:12;;;;;;;9.23;3.03;;;;;;;0.27;81.20;100861.36;1640581;87;21558;-78
2022/01/22 00:36:39;;;;;;;8.00;2.87;;;;;;;0.29;81.48;100860.11;1640504;87;21057;-79
2022/01/22 00:39:07;;;;;;;7.90;2.57;;;;;;;0.30;81.55;100861.83;1640707;87;21136;-79
2022/01/22 00:41:35;;;;;;;5.70;2.40;;;;;;;0.30;81.57;100865.27;1640600;87;21014;-79
2022/01/22 00:44:04;;;;;;;10.70;3.47;;;;;;;0.30;81.58;100866.98;1640628;87;21054;-78
2022/01/22 00:46:31;;;;;;;11.13;2.90;;;;;;;0.30;81.64;100861.83;1640612;87;21037;-78
2022/01/22 00:49:02;;;;;;;8.57;3.10;;;;;;;0.29;81.82;100862.69;1640690;87;21069;-79
2022/01/22 00:51:29;;;;;;;6.47;2.50;;;;;;;0.28;82.04;100859.25;1640643;87;21108;-78
2022/01/22 00:53:57;;;;;;;11.03;3.40;;;;;;;0.28;82.09;100864.80;1640578;87;21000;-78
2022/01/22 00:56:24;;;;;;;9.57;3.23;;;;;;;0.27;82.26;100860.08;1640609;87;21010;-79
2022/01/22 00:58:51;;;;;;;7.47;2.93;;;;;;;0.29;82.46;100863.97;1640851;87;21085;-79
2022/01/22 01:01:18;;;;;;;5.03;2.87;;;;;;;0.29;82.59;100862.26;1640734;87;21048;-79
2022/01/22 01:03:45;;;;;;;5.67;2.53;;;;;;;0.28;82.58;100858.36;1640772;87;21116;-79
2022/01/22 01:06:12;;;;;;;10.83;3.53;;;;;;;0.27;82.71;100847.19;1640631;87;21524;-80
2022/01/22 01:08:40;;;;;;;6.27;2.47;;;;;;;0.28;82.56;100842.48;1640916;87;21018;-80
2022/01/22 01:11:07;;;;;;;5.90;2.90;;;;;;;0.28;82.72;100852.80;1640692;87;21086;-79
2022/01/22 01:13:41;;;;;;;8.07;2.37;;;;;;;0.30;82.82;100846.36;1640856;87;21053;-78
2022/01/22 01:16:17;;;;;;;9.20;2.97;;;;;;;0.30;83.01;100845.07;1640515;85;21157;-80
2022/01/22 01:32:27;;;;;;;4.73;2.13;;;;;;;0.30;83.53;100839.91;1640542;87;21022;-79
2022/01/22 01:34:51;;;;;;;7.83;2.57;;;;;;;0.30;83.42;100834.75;1641109;85;21583;-76
2022/01/22 01:37:19;;;;;;;7.87;2.77;;;;;;;0.29;83.48;100830.45;1640764;87;21553;-79
2022/01/22 01:39:51;;;;;;;8.10;2.57;;;;;;;0.29;83.59;100836.91;1640832;87;21053;-76
2022/01/22 01:42:28;;;;;;;6.70;2.33;;;;;;;0.29;83.57;100834.33;1640783;87;21315;-76
2022/01/22 01:44:47;;;;;;;6.83;2.03;;;;;;;0.28;83.67;100836.05;1640140;87;21031;-81
2022/01/22 01:47:17;;;;;;;6.50;2.17;;;;;;;0.28;83.68;100837.33;1639608;87;21109;-76
2022/01/22 01:49:46;;;;;;;6.37;2.10;;;;;;;0.29;83.85;100835.19;1640912;87;21021;-76
2022/01/22 01:52:37;;;;;;;8.90;2.30;;;;;;;0.30;83.83;100830.89;1640700;85;21021;-76
2022/01/22 01:55:11;;;;;;;6.80;2.10;;;;;;;0.31;83.92;100830.92;1640358;85;21763;-76
2022/01/22 01:57:39;;;;;;;10.53;2.60;;;;;;;0.32;84.17;100831.78;1611224;87;21085;-76
2022/01/22 02:00:14;;;;;;;4.73;1.73;;;;;;;0.34;84.08;100833.96;1640909;85;21554;-75
2022/01/22 02:02:46;;;;;;;5.27;1.63;;;;;;;0.34;84.28;100837.83;1640669;87;21052;-76
2022/01/22 02:05:19;;;;;;;3.93;1.53;;;;;;;0.34;84.15;100837.83;1640982;85;21018;-81
2022/01/22 02:07:46;;;;;;;4.57;1.67;;;;;;;0.35;84.28;100840.84;1640493;87;21178;-76
2022/01/22 02:10:21;;;;;;;5.37;1.70;;;;;;;0.36;84.45;100834.42;1640952;87;20998;-75
2022/01/22 02:23:40;;;;;;;4.33;1.50;;;;;;;0.37;84.54;100845.17;1589245;87;22132;-76
2022/01/22 02:26:07;;;;;;;8.18;2.60;;;;;;;0.36;84.63;100846.42;1640715;85;21041;-76
2022/01/22 02:28:37;;;;;;;4.70;2.10;;;;;;;0.36;84.68;100852.47;1640703;87;21526;-76
2022/01/22 02:31:19;;;;;;;5.53;2.10;;;;;;;0.36;84.63;100851.58;1640716;87;21042;-76
2022/01/22 02:34:18;;;;;;;5.40;2.07;;;;;;;0.37;84.80;100854.63;1640105;87;21155;-75
2022/01/22 02:39:18;;;;;;;5.60;2.43;;;;;;;0.36;84.95;100865.77;1640811;87;21455;-76
2022/01/22 02:41:48;;;;;;;4.23;2.40;;;;;;;0.36;85.01;100856.34;1641051;85;21109;-75
2022/01/22 02:44:35;;;;;;;3.97;2.37;;;;;;;0.35;84.76;100849.44;1640503;87;21062;-76
2022/01/22 02:47:07;;;;;;;6.53;2.47;;;;;;;0.34;84.99;100846.85;1640477;87;21133;-76
2022/01/22 02:49:36;;;;;;;4.73;2.63;;;;;;;0.32;84.96;100840.80;1640424;87;21029;-76
2022/01/22 02:52:10;;;;;;;4.93;2.37;;;;;;;0.31;85.10;100843.81;1640771;87;21062;-76
2022/01/22 02:54:39;;;;;;;5.13;2.50;;;;;;;0.30;85.05;100860.11;1640638;87;21053;-75
2022/01/22 02:57:11;;;;;;;9.27;2.80;;;;;;;0.28;85.10;100859.25;1640697;87;21038;-75
2022/01/22 02:59:39;;;;;;;5.03;2.43;;;;;;;0.28;85.26;100859.64;1640606;87;21148;-75
2022/01/22 03:02:08;;;;;;;6.00;2.83;;;;;;;0.29;85.30;100861.40;1640690;87;21541;-75
2022/01/22 03:04:35;;;;;;;4.80;2.63;;;;;;;0.30;85.38;100863.12;1611586;87;21038;-75
2022/01/22 03:07:03;;;;;;;4.57;2.57;;;;;;;0.28;85.42;100869.56;1640828;87;21503;-75
2022/01/22 03:09:32;;;;;;;7.27;2.77;;;;;;;0.29;85.48;100873.00;1640535;87;21542;-75
2022/01/22 03:12:18;;;;;;;7.00;2.93;;;;;;;0.29;85.47;100880.30;1640674;87;21148;-75
2022/01/22 03:22:22;;;;;;;6.60;3.27;;;;;;;0.31;85.67;100898.39;1640888;87;21162;-75
2022/01/22 03:27:33;;;;;;;6.77;3.80;;;;;;;0.29;85.72;100898.36;1640459;87;21499;-77
2022/01/22 03:30:01;;;;;;;7.00;3.80;;;;;;;0.30;85.84;100905.66;1640516;87;21018;-75
2022/01/22 03:32:38;;;;;;;7.17;3.90;;;;;;;0.30;85.88;100910.39;1640772;87;21058;-75
2022/01/22 03:35:10;;;;;;;9.53;4.47;;;;;;;0.31;85.91;100916.44;1640486;85;21567;-75
2022/01/22 03:37:30;;;;;;;5.67;3.97;;;;;;;0.32;85.95;100925.47;1640402;85;21128;-75
2022/01/22 03:39:58;;;;;;;5.53;3.67;;;;;;;0.32;86.02;100929.77;1640420;87;21284;-75
2022/01/22 03:42:25;;;;;;;10.33;4.10;;;;;;;0.32;86.03;100937.50;1640523;87;21547;-76
2022/01/22 03:44:52;;;;;;;9.87;4.53;;;;;;;0.32;86.09;100947.38;1640511;87;21018;-75
2022/01/22 03:47:20;;;;;;;6.97;4.23;;;;;;;0.32;86.11;100947.38;1640668;87;21026;-75
2022/01/22 03:49:47;;;;;;;9.57;4.07;;;;;;;0.33;86.05;100944.38;1640628;87;21782;-75
2022/01/22 03:52:17;;;;;;;7.43;4.47;;;;;;;0.32;86.12;100947.81;1640773;87;21516;-75
2022/01/22 03:54:45;;;;;;;7.70;4.27;;;;;;;0.32;86.16;100953.83;1640595;87;21034;-78
2022/01/22 03:57:14;;;;;;;7.63;4.07;;;;;;;0.32;86.11;100958.98;1640756;87;21037;-75
2022/01/22 03:59:45;;;;;;;5.93;4.17;;;;;;;0.33;86.28;100970.16;1640764;85;21006;-75
2022/01/22 04:04:51;;;;;;;6.50;4.20;;;;;;;0.37;86.33;100977.11;1640664;87;22230;-74
2022/01/22 04:09:48;;;;;;;10.07;4.63;;;;;;;0.37;86.24;100982.27;1640830;87;21068;-75
2022/01/22 04:12:24;;;;;;;8.23;4.53;;;;;;;0.36;86.31;100990.43;1640430;87;21572;-75
2022/01/22 04:14:52;;;;;;;7.13;4.33;;;;;;;0.38;86.31;100990.00;1641183;85;21263;-75
2022/01/22 04:24:50;;;;;;;6.93;4.37;;;;;;;0.37;86.34;101005.47;1640592;87;21101;-75
2022/01/22 04:25:10;;;;;;;7.80;4.67;;;;;;;0.37;86.41;101011.49;1639563;87;21053;-75
2022/01/22 04:27:37;;;;;;;6.17;4.37;;;;;;;0.38;86.43;101015.80;1640579;87;21152;-75
2022/01/22 04:30:05;;;;;;;6.93;4.80;;;;;;;0.39;86.43;101017.97;1640711;87;20994;-75
2022/01/22 04:32:32;;;;;;;42.40;25.00;;;;;;;0.39;86.41;101023.99;1640586;87;21018;-75
2022/01/22 04:35:00;;;;;;;36.63;30.27;;;;;;;0.39;86.43;101027.86;1640795;87;21563;-75
2022/01/22 04:37:28;;;;;;;10.03;7.73;;;;;;;0.39;86.43;101027.00;1640494;87;21057;-74
2022/01/22 04:39:56;;;;;;;17.60;8.20;;;;;;;0.37;86.41;101033.41;1640732;87;21062;-75
2022/01/22 04:42:25;;;;;;;23.07;16.27;;;;;;;0.36;86.35;101035.95;1640587;87;21029;-75
2022/01/22 04:44:59;;;;;;;16.90;11.63;;;;;;;0.33;86.30;101040.64;1640746;87;21078;-75
2022/01/22 04:54:57;;;;;;;10.80;8.13;;;;;;;0.31;86.35;101051.38;1640569;87;21145;-75
2022/01/22 04:55:13;;;;;;;19.90;11.83;;;;;;;0.31;86.30;101052.66;1639787;85;21046;-74
2022/01/22 04:57:46;;;;;;;14.47;7.90;;;;;;;0.31;86.26;101057.83;1640402;87;21026;-74
2022/01/22 05:00:17;;;;;;;31.70;17.47;;;;;;;0.29;86.14;101054.77;1640768;87;21025;-75
2022/01/22 05:03:05;;;;;;;33.80;20.27;;;;;;;0.29;86.18;101062.08;1588995;90;21093;-75
2022/01/22 05:05:49;;;;;;;16.93;12.87;;;;;;;0.27;86.10;101068.05;1575704;90;21209;-75
2022/01/22 05:08:18;;;;;;;11.60;8.13;;;;;;;0.25;86.08;101074.50;1613269;87;21578;-74
2022/01/22 05:10:47;;;;;;;13.63;6.83;;;;;;;0.23;85.92;101077.89;1640514;85;21018;-75
2022/01/22 05:13:14;;;;;;;29.50;13.93;;;;;;;0.20;85.88;101079.56;1640339;87;21089;-75
2022/01/22 05:15:41;;;;;;;50.57;19.93;;;;;;;0.17;85.80;101087.26;1640844;87;21127;-75
2022/01/22 05:18:09;;;;;;;24.13;10.13;;;;;;;0.15;85.78;101092.80;1640522;87;21107;-75
2022/01/22 05:20:45;;;;;;;23.70;11.30;;;;;;;0.10;85.64;101089.70;1632670;87;21006;-77
2022/01/22 05:23:12;;;;;;;91.97;50.33;;;;;;;0.06;85.67;101099.09;1640150;87;21049;-75
2022/01/22 05:25:45;;;;;;;54.80;19.98;;;;;;;0.01;85.67;101106.30;1640819;85;22026;-75
2022/01/22 05:38:57;;;;;;;28.20;12.80;;;;;;;-0.17;86.04;101144.19;1615857;87;21049;-74
2022/01/22 05:41:24;;;;;;;29.53;14.83;;;;;;;-0.21;86.06;101151.00;1640951;87;21078;-75
2022/01/22 05:43:52;;;;;;;51.43;31.10;;;;;;;-0.24;86.14;101154.39;1640683;87;21955;-74
2022/01/22 05:46:19;;;;;;;68.30;24.63;;;;;;;-0.25;86.25;101154.34;1640744;87;21061;-75
2022/01/22 05:48:46;;;;;;;55.93;21.13;;;;;;;-0.27;86.33;101159.48;1640599;87;21018;-75
2022/01/22 05:51:15;;;;;;;35.77;16.57;;;;;;;-0.27;86.31;101163.77;1640743;87;21056;-74
2022/01/22 06:02:00;;;;;;;40.50;17.33;;;;;;;-0.40;86.06;101190.98;1640914;87;21042;-75
2022/01/22 06:04:27;;;;;;;41.27;18.10;;;;;;;-0.42;86.22;101190.50;1640643;87;21663;-75
2022/01/22 06:06:56;;;;;;;22.87;10.87;;;;;;;-0.43;86.20;101195.22;1640970;85;21026;-75
2022/01/22 06:09:25;;;;;;;30.73;14.83;;;;;;;-0.43;86.32;101199.94;1640537;87;21128;-75
2022/01/22 06:14:36;;;;;;;13.23;7.23;;;;;;;-0.47;86.33;101211.89;1640527;87;21002;-74
2022/01/22 06:17:04;;;;;;;26.07;12.47;;;;;;;-0.48;86.29;101221.72;1640896;87;21498;-74
2022/01/22 06:19:33;;;;;;;41.43;16.33;;;;;;;-0.49;86.27;101223.00;1636336;87;21030;-74
2022/01/22 06:22:00;;;;;;;21.90;10.43;;;;;;;-0.54;86.20;101224.17;1640874;87;21124;-75
2022/01/22 06:24:31;;;;;;;74.53;37.63;;;;;;;-0.56;86.15;101232.70;1632801;85;21050;-74
2022/01/22 06:26:58;;;;;;;113.90;38.03;;;;;;;-0.60;86.11;101239.92;1640648;87;21033;-75
2022/01/22 06:29:25;;;;;;;62.13;22.20;;;;;;;-0.62;86.14;101241.59;1640735;87;21033;-76
2022/01/22 06:31:53;;;;;;;42.30;15.53;;;;;;;-0.69;86.00;101251.76;1640814;87;21089;-74
2022/01/22 06:34:21;;;;;;;38.23;16.23;;;;;;;-0.70;86.08;101254.28;1640516;87;21106;-75
2022/01/22 06:36:48;;;;;;;44.10;17.80;;;;;;;-0.74;86.09;101261.08;1640718;87;21078;-75
2022/01/22 06:39:17;;;;;;;38.30;15.83;;;;;;;-0.76;86.03;101261.88;1640535;87;21102;-75
2022/01/22 06:41:49;;;;;;;20.90;9.57;;;;;;;-0.79;85.96;101264.37;1595621;87;21057;-75
2022/01/22 06:44:34;;;;;;;11.40;6.77;;;;;;;-0.82;86.01;101259.16;1639106;87;21056;-75
2022/01/22 06:47:03;;;;;;;25.75;11.00;;;;;;;-0.86;86.05;101271.07;1601216;87;21349;-75
2022/01/22 06:49:33;;;;;;;13.40;7.13;;;;;;;-0.87;86.11;101269.77;1639920;85;21057;-75
2022/01/22 06:52:18;;;;;;;22.10;9.43;;;;;;;-0.88;86.14;101279.62;1640603;87;21416;-75
2022/01/22 06:54:45;;;;;;;17.10;8.23;;;;;;;-0.92;86.12;101283.38;1640571;87;21323;-75
2022/01/22 06:57:13;;;;;;;18.00;8.70;;;;;;;-0.93;86.07;101288.50;1640710;87;21014;-75
2022/01/22 06:59:41;;;;;;;11.40;7.63;;;;;;;-0.97;86.07;101295.29;1632826;85;21141;-75
2022/01/22 07:02:10;;;;;;;28.47;13.30;;;;;;;-0.97;86.11;101309.45;1640733;87;21129;-76
2022/01/22 07:04:38;;;;;;;43.07;20.63;;;;;;;-1.00;85.97;101311.95;1640790;87;21086;-76
2022/01/22 07:07:10;;;;;;;18.30;12.70;;;;;;;-1.04;86.00;101308.83;1632542;87;21030;-76
2022/01/22 07:09:38;;;;;;;14.87;9.40;;;;;;;-1.06;86.01;101316.05;1640577;87;21150;-75
2022/01/22 07:12:07;;;;;;;7.20;5.37;;;;;;;-1.09;85.93;101316.84;1640699;87;21830;-75
2022/01/22 07:14:34;;;;;;;10.67;7.03;;;;;;;-1.14;85.79;101325.75;1640577;87;21519;-75
2022/01/22 07:17:02;;;;;;;9.43;5.80;;;;;;;-1.18;85.76;101335.91;1640532;87;21041;-75
2022/01/22 07:19:38;;;;;;;8.93;5.33;;;;;;;-1.23;85.72;101340.06;1640732;85;27291;-76
2022/01/22 07:22:08;;;;;;;7.17;5.37;;;;;;;-1.27;85.87;101344.27;1639184;87;21029;-76
2022/01/22 07:24:37;;;;;;;7.83;5.33;;;;;;;-1.28;85.90;101353.21;1610878;87;21128;-76
2022/01/22 07:27:02;;;;;;;;;;;;;;;-1.30;86.18;101358.34;1643039;85;20938;-76
2022/01/22 07:29:31;;;;;;;12.33;7.13;;;;;;;-1.27;86.51;101364.84;1640480;87;20182;-75
2022/01/22 07:32:03;;;;;;;19.13;10.03;;;;;;;-1.24;86.64;101366.20;1640608;87;21034;-76
2022/01/22 07:34:30;;;;;;;11.90;7.67;;;;;;;-1.22;86.60;101368.80;1640635;87;21061;-75
2022/01/22 07:37:02;;;;;;;36.87;16.50;;;;;;;-1.19;86.71;101366.30;1640309;87;21140;-76
2022/01/22 07:39:29;;;;;;;12.17;7.73;;;;;;;-1.16;86.87;101374.13;1640686;87;21030;-76
2022/01/22 07:42:14;;;;;;;17.63;10.27;;;;;;;-1.11;86.97;101375.09;1640605;87;21447;-76
2022/01/22 07:44:56;;;;;;;15.10;8.55;;;;;;;-1.06;87.14;101379.95;1639843;87;21053;-74
2022/01/22 07:47:23;;;;;;;16.87;8.90;;;;;;;-1.01;87.08;101382.66;1640438;87;21118;-76
2022/01/22 07:49:55;;;;;;;13.43;7.40;;;;;;;-0.98;87.07;101384.88;1640826;87;21078;-76
2022/01/22 07:52:22;;;;;;;14.60;7.97;;;;;;;-0.96;87.00;101390.08;1640553;87;21571;-76
2022/01/22 07:54:51;;;;;;;17.70;9.50;;;;;;;-0.95;86.87;101395.25;1640638;87;21033;-76
2022/01/22 07:57:19;;;;;;;11.77;6.50;;;;;;;-0.95;86.78;101399.53;1640584;87;21050;-76
2022/01/22 07:59:46;;;;;;;12.20;6.73;;;;;;;-0.96;86.75;101403.81;1632858;85;21064;-76
2022/01/22 08:02:14;;;;;;;14.07;7.20;;;;;;;-0.96;86.69;101411.53;1640474;87;21133;-75
2022/01/22 08:05:00;;;;;;;12.03;5.27;;;;;;;-0.95;86.68;101417.55;1640539;87;21069;-75
2022/01/22 08:07:45;;;;;;;14.70;6.20;;;;;;;-0.95;86.54;101431.28;1640592;87;21060;-75
2022/01/22 08:10:18;;;;;;;15.30;7.30;;;;;;;-0.96;86.46;101429.97;1619301;87;20981;-76
2022/01/22 08:12:52;;;;;;;19.02;8.03;;;;;;;-0.95;86.47;101445.44;1640710;85;21053;-75
2022/01/22 08:15:17;;;;;;;20.90;9.27;;;;;;;-0.93;86.55;101460.94;1640063;87;22099;-76
2022/01/22 08:17:45;;;;;;;21.70;8.77;;;;;;;-0.92;86.54;101454.52;1640648;87;21526;-75
2022/01/22 08:20:16;;;;;;;16.80;9.00;;;;;;;-0.89;86.64;101456.31;1640546;87;21021;-74
2022/01/22 08:22:53;;;;;;;14.93;7.13;;;;;;;-0.84;86.74;101452.16;1640719;87;21049;-75
2022/01/22 08:25:42;;;;;;;10.30;5.40;;;;;;;-0.79;86.61;101466.02;1640508;87;21088;-75
2022/01/22 08:31:04;;;;;;;11.50;6.43;;;;;;;-0.75;86.50;101471.73;1640540;87;21038;-76
2022/01/22 08:35:52;;;;;;;13.67;6.90;;;;;;;-0.74;86.42;101472.17;1610983;87;21243;-75
2022/01/22 08:36:02;;;;;;;9.30;5.27;;;;;;;-0.73;86.38;101468.75;1639805;85;21042;-74
2022/01/22 08:38:30;;;;;;;8.50;4.67;;;;;;;-0.70;86.35;101470.54;1640790;85;21081;-75
2022/01/22 08:40:58;;;;;;;8.98;4.58;;;;;;;-0.70;86.20;101465.39;1640868;87;22009;-76
2022/01/22 08:43:28;;;;;;;12.00;5.87;;;;;;;-0.70;86.27;101466.67;1640493;87;21557;-76
2022/01/22 08:45:55;;;;;;;9.17;5.40;;;;;;;-0.67;86.19;101477.05;1640769;87;21083;-74
2022/01/22 08:48:23;;;;;;;13.20;5.93;;;;;;;-0.66;86.20;101477.95;1640528;87;21049;-75
2022/01/22 08:50:55;;;;;;;8.93;4.40;;;;;;;-0.62;86.22;101479.76;1640791;85;21069;-75
2022/01/22 08:53:23;;;;;;;12.17;4.83;;;;;;;-0.61;86.10;101476.34;1640476;87;22068;-76
2022/01/22 08:55:49;;;;;;;10.60;4.30;;;;;;;-0.60;85.95;101484.55;1640652;87;21041;-75
2022/01/22 08:58:17;;;;;;;8.13;4.57;;;;;;;-0.57;86.09;101489.34;1640562;87;21022;-75
2022/01/22 09:00:49;;;;;;;12.53;5.60;;;;;;;-0.53;86.02;101491.57;1640877;85;21073;-75
2022/01/22 09:03:23;;;;;;;11.90;5.43;;;;;;;-0.49;85.84;101497.27;1640301;87;21027;-76
2022/01/22 09:05:58;;;;;;;10.30;5.00;;;;;;;-0.45;85.87;101500.37;1639562;87;21146;-75
2022/01/22 09:08:27;;;;;;;13.67;5.20;;;;;;;-0.38;85.89;101502.70;1632502;87;20998;-75
2022/01/22 09:11:08;;;;;;;9.07;4.27;;;;;;;-0.33;85.84;101507.14;1640236;87;21538;-76
2022/01/22 09:13:46;;;;;;;8.97;4.30;;;;;;;-0.26;85.71;101504.28;1640066;87;21041;-74
2022/01/22 09:16:12;;;;;;;8.83;4.27;;;;;;;-0.23;85.51;101509.09;1640607;87;21010;-75
2022/01/22 09:18:44;;;;;;;9.57;3.90;;;;;;;-0.16;85.54;101503.69;1640683;87;21090;-77
2022/01/22 09:21:11;;;;;;;10.30;4.37;;;;;;;-0.07;85.52;101501.75;1640550;87;21029;-75
2022/01/22 09:23:38;;;;;;;8.13;3.20;;;;;;;0.02;85.42;101501.95;1640618;87;21082;-76
2022/01/22 09:26:07;;;;;;;10.73;3.80;;;;;;;0.10;85.20;101500.85;1640609;85;22096;-75
2022/01/22 09:28:35;;;;;;;7.47;4.10;;;;;;;0.17;85.16;101510.48;1640553;87;21009;-76
2022/01/22 09:31:03;;;;;;;8.90;3.50;;;;;;;0.25;84.96;101514.50;1640621;87;21874;-75
2022/01/22 09:33:31;;;;;;;7.07;3.67;;;;;;;0.33;84.75;101515.55;1640604;87;21049;-75
2022/01/22 09:36:06;;;;;;;8.93;5.10;;;;;;;0.38;84.66;101511.37;1639851;85;21078;-75
2022/01/22 09:38:52;;;;;;;9.80;4.23;;;;;;;0.48;84.64;101513.33;1640276;85;21492;-76
2022/01/22 09:41:34;;;;;;;7.83;3.30;;;;;;;0.56;84.24;101516.95;1640272;87;21141;-76
2022/01/22 09:44:06;;;;;;;47.03;19.47;;;;;;;0.66;84.13;101523.16;1640837;85;21570;-76
2022/01/22 09:46:40;;;;;;;14.47;7.30;;;;;;;0.71;83.84;101532.30;1639340;87;21045;-76
2022/01/22 09:49:11;;;;;;;12.67;5.97;;;;;;;0.74;83.64;101533.23;1640388;87;21522;-76
2022/01/22 09:51:56;;;;;;;10.37;5.07;;;;;;;0.82;83.57;101531.69;1640581;87;21022;-76
2022/01/22 09:54:28;;;;;;;10.63;4.23;;;;;;;0.94;83.57;101527.19;1640747;85;21506;-76
2022/01/22 09:57:06;;;;;;;5.70;2.67;;;;;;;1.07;83.39;101530.90;1640171;87;21160;-76
2022/01/22 09:59:35;;;;;;;4.07;2.17;;;;;;;1.15;83.11;101531.92;1636026;87;21029;-75
2022/01/22 10:02:17;;;;;;;6.43;3.20;;;;;;;1.25;82.98;101536.44;1639723;87;21491;-75
2022/01/22 10:04:49;;;;;;;3.37;1.67;;;;;;;1.31;82.65;101544.30;1640924;87;21014;-75
2022/01/22 10:07:36;;;;;;;12.73;4.87;;;;;;;1.32;82.25;101543.87;1636434;86;21256;-75
2022/01/22 10:10:24;;;;;;;7.70;3.63;;;;;;;1.40;82.25;101550.05;1640724;85;21235;-75
2022/01/22 10:13:09;;;;;;;4.50;2.70;;;;;;;1.45;81.83;101547.57;1640582;87;21025;-76
2022/01/22 10:15:39;;;;;;;7.17;4.33;;;;;;;1.51;81.81;101545.95;1640735;85;21033;-76
2022/01/22 10:18:22;;;;;;;8.27;4.37;;;;;;;1.61;81.74;101547.01;1640618;87;21596;-76
2022/01/22 10:20:49;;;;;;;12.87;6.87;;;;;;;1.74;81.49;101553.25;1640669;87;21062;-75
2022/01/22 10:23:25;;;;;;;8.50;5.43;;;;;;;1.82;81.34;101553.39;1640774;87;21129;-76
2022/01/22 10:26:02;;;;;;;8.10;4.00;;;;;;;1.86;80.85;101547.02;1640553;87;21059;-76
2022/01/22 10:28:30;;;;;;;6.60;4.07;;;;;;;1.93;80.67;101555.73;1640638;87;21037;-76
2022/01/22 10:31:02;;;;;;;8.07;4.27;;;;;;;1.96;80.22;101555.35;1639311;87;21082;-76
2022/01/22 10:34:08;;;;;;;10.68;5.03;;;;;;;2.06;80.21;101551.64;1640755;87;21550;-76
2022/01/22 10:37:02;;;;;;;4.73;2.57;;;;;;;2.11;80.11;101555.19;1640551;87;21153;-76
2022/01/22 10:39:33;;;;;;;5.70;2.80;;;;;;;2.12;79.99;101564.67;1637951;87;21018;-76
2022/01/22 10:42:00;;;;;;;6.17;3.30;;;;;;;2.09;79.63;101567.21;1640592;87;21041;-75
2022/01/22 10:44:45;;;;;;;8.83;3.40;;;;;;;1.92;79.40;101566.50;1640828;87;21030;-75
2022/01/22 10:47:10;;;;;;;;;;;;;;;1.91;79.65;101563.48;1642755;87;21538;-76
2022/01/22 10:49:37;;;;;;;11.10;4.95;;;;;;;1.92;79.35;101566.50;1639505;87;21185;-75
2022/01/22 10:52:07;;;;;;;14.17;7.23;;;;;;;1.88;79.24;101565.98;1640559;87;21002;-75
2022/01/22 10:54:37;;;;;;;13.90;6.33;;;;;;;2.04;79.46;101563.67;1640847;87;21056;-75
2022/01/22 10:57:22;;;;;;;9.93;5.15;;;;;;;2.11;79.40;101567.69;1640618;87;21483;-75
2022/01/22 10:59:56;;;;;;;10.23;5.13;;;;;;;2.15;79.11;101569.89;1640782;87;21026;-75
2022/01/22 11:02:38;;;;;;;7.07;3.90;;;;;;;2.09;78.95;101560.31;1640547;87;21079;-75
2022/01/22 11:05:07;;;;;;;9.33;4.60;;;;;;;2.22;78.91;101572.61;1640720;87;21026;-75
2022/01/22 11:07:34;;;;;;;7.73;3.17;;;;;;;2.36;78.55;101573.25;1640524;87;21025;-74
2022/01/22 11:10:01;;;;;;;7.20;3.87;;;;;;;2.44;78.44;101576.83;1640624;87;21050;-75
2022/01/22 11:12:29;;;;;;;6.50;3.83;;;;;;;2.56;78.00;101573.55;1640618;87;21046;-75
2022/01/22 11:14:57;;;;;;;9.37;4.00;;;;;;;2.45;77.74;101583.73;1640824;87;21921;-75
2022/01/22 11:17:27;;;;;;;10.80;4.57;;;;;;;2.23;77.35;101587.27;1640565;87;21546;-75
2022/01/22 11:19:57;;;;;;;7.85;4.33;;;;;;;2.03;77.28;101592.98;1640467;87;21540;-75
2022/01/22 11:22:27;;;;;;;10.32;4.50;;;;;;;1.87;77.44;101595.28;1640882;87;28470;-75
2022/01/22 11:24:56;;;;;;;9.25;4.42;;;;;;;1.82;77.75;101600.78;1640662;87;21086;-75
2022/01/22 11:27:23;;;;;;;16.67;8.07;;;;;;;2.04;77.77;101611.09;1640903;87;21209;-75
2022/01/22 11:29:59;;;;;;;6.83;4.23;;;;;;;2.21;77.48;101613.53;1640462;87;20953;-76
2022/01/22 11:32:48;;;;;;;5.80;2.70;;;;;;;2.52;77.54;101620.48;1640942;87;21053;-75
2022/01/22 11:35:39;;;;;;;6.90;4.10;;;;;;;2.69;77.15;101623.36;1640912;87;21594;-76
2022/01/22 11:38:10;;;;;;;5.80;3.80;;;;;;;3.01;76.96;101624.23;1606739;87;21074;-76
2022/01/22 11:40:37;;;;;;;6.30;3.90;;;;;;;2.81;76.21;101624.82;1640479;87;21128;-76
2022/01/22 11:43:13;;;;;;;24.83;12.07;;;;;;;2.89;76.38;101624.94;1640744;87;21018;-75
2022/01/22 11:45:51;;;;;;;6.77;3.07;;;;;;;3.24;76.43;101617.64;1640676;87;21031;-74
2022/01/22 11:48:24;;;;;;;11.57;5.43;;;;;;;3.42;75.76;101620.88;1640690;87;21086;-76
2022/01/22 11:50:55;;;;;;;8.00;3.43;;;;;;;3.53;75.46;101628.34;1640584;87;21109;-75
2022/01/22 11:53:27;;;;;;;9.00;6.30;;;;;;;3.39;75.12;101632.94;1640853;87;21046;-74
2022/01/22 11:56:27;;;;;;;8.97;4.83;;;;;;;3.17;75.05;101634.38;1640435;87;21010;-75
2022/01/22 11:59:04;;;;;;;7.07;3.10;;;;;;;3.21;75.04;101637.01;1640750;87;21054;-75
2022/01/22 12:01:53;;;;;;;5.43;3.17;;;;;;;3.12;74.91;101637.77;1640608;87;21026;-75
2022/01/22 12:04:28;;;;;;;10.58;4.58;;;;;;;2.89;74.80;101646.52;1640905;87;21503;-74
2022/01/22 12:07:07;;;;;;;14.30;7.37;;;;;;;2.66;74.87;101642.70;1640579;87;21930;-75
2022/01/22 12:15:45;;;;;;;7.47;2.70;;;;;;;2.17;75.10;101637.62;1615894;87;21074;-75
2022/01/22 12:18:16;;;;;;;12.17;4.33;;;;;;;2.17;75.05;101643.22;1640613;87;21128;-75
2022/01/22 12:23:32;;;;;;;9.17;4.50;;;;;;;2.42;75.21;101645.37;1640685;87;20934;-76
2022/01/22 12:26:03;;;;;;;4.83;2.70;;;;;;;2.22;74.65;101648.05;1640529;87;21045;-76
2022/01/22 12:28:43;;;;;;;11.12;5.87;;;;;;;2.01;74.47;101648.11;1640917;87;21053;-75
2022/01/22 12:31:16;;;;;;;;;;;;;;;1.92;74.50;101656.13;1642990;87;21526;-75
2022/01/22 12:33:52;;;;;;;7.63;3.07;;;;;;;1.82;74.42;101655.50;1640733;87;21122;-76
2022/01/22 12:36:28;;;;;;;8.00;3.50;;;;;;;1.78;74.66;101655.45;1640323;87;21042;-77
2022/01/22 12:39:07;;;;;;;7.30;3.80;;;;;;;1.72;74.51;101660.50;1639965;87;20887;-76
2022/01/22 12:44:33;;;;;;;7.50;3.60;;;;;;;1.53;74.49;101660.56;1640839;87;21304;-76
2022/01/22 12:47:10;;;;;;;5.63;3.13;;;;;;;1.43;74.47;101670.24;1640401;87;21958;-77
2022/01/22 12:49:38;;;;;;;6.73;3.40;;;;;;;1.30;74.43;101676.88;1640310;85;21570;-75
2022/01/22 12:52:10;;;;;;;6.07;3.50;;;;;;;1.16;74.34;101679.98;1640484;87;21045;-76
2022/01/22 12:54:43;;;;;;;10.93;5.53;;;;;;;1.07;74.27;101684.53;1640555;87;21073;-76
2022/01/22 12:57:13;;;;;;;19.20;7.77;;;;;;;1.09;74.50;101687.61;1640541;87;21496;-77
2022/01/22 13:00:03;;;;;;;8.80;4.27;;;;;;;1.42;74.72;101687.89;1640564;87;21146;-76
2022/01/22 13:02:41;;;;;;;14.60;5.77;;;;;;;1.69;74.41;101687.98;1640216;87;21030;-75
2022/01/22 13:05:12;;;;;;;14.07;5.80;;;;;;;1.99;74.43;101685.13;1640458;87;21466;-75
2022/01/22 13:07:55;;;;;;;6.87;4.10;;;;;;;2.19;74.31;101691.95;1608750;87;20927;-75
2022/01/22 13:10:34;;;;;;;4.17;2.30;;;;;;;2.31;74.03;101685.72;1614935;87;21086;-75
2022/01/22 13:13:03;;;;;;;5.10;2.53;;;;;;;2.29;73.36;101689.98;1640553;87;21962;-75
2022/01/22 13:15:30;;;;;;;4.87;2.33;;;;;;;2.26;73.47;101688.64;1640320;87;20965;-76
2022/01/22 13:18:01;;;;;;;9.20;4.00;;;;;;;2.32;73.27;101695.20;1640459;87;21041;-75